Time;durP1;ratioP1;P1;durP2;ratioP2;P2;SDS_P1;SDS_P2;PMS_P1;PMS_P2;Temp;Humidity;BMP_temperature;BMP_pressure;BME280_temperature;BME280_humidity;BME280_pressure;Samples;Min_cycle;Max_cycle;Signal;HPM_P1;HPM_P2
2023/03/03 00:02:33;;;;;;;;;;;19.20;29.50;;;;;;8364991;28;19925;-44
2023/03/03 00:06:34;;;;;;;;;;;19.20;29.50;;;;;;8363717;28;19924;-44
2023/03/03 00:10:34;;;;;;;;;;;19.20;29.60;;;;;;8363994;28;20331;-44
2023/03/03 00:14:35;;;;;;;;;;;19.20;29.60;;;;;;8364769;28;19920;-44
2023/03/03 00:18:36;;;;;;;;;;;19.10;29.60;;;;;;8364586;28;19920;-43
2023/03/03 00:22:39;;;;;;;;;;;19.10;29.60;;;;;;8363679;28;19932;-44
2023/03/03 00:26:40;;;;;;;;;;;19.10;29.60;;;;;;8364371;28;20019;-45
2023/03/03 00:30:41;;;;;;;;;;;19.10;29.70;;;;;;8364057;28;20011;-43
2023/03/03 00:34:42;;;;;;;;;;;19.00;29.60;;;;;;8363504;28;19967;-44
2023/03/03 00:38:42;;;;;;;;;;;19.10;29.70;;;;;;8364043;28;19924;-45
2023/03/03 00:42:45;;;;;;;;;;;19.00;29.70;;;;;;8363503;28;19925;-44
2023/03/03 00:46:46;;;;;;;;;;;19.00;29.70;;;;;;8363641;28;19916;-44
2023/03/03 00:50:47;;;;;;;;;;;19.00;29.70;;;;;;8363344;28;20007;-45
2023/03/03 00:54:47;;;;;;;;;;;19.00;29.70;;;;;;8363290;28;19917;-43
2023/03/03 00:58:48;;;;;;;;;;;18.90;29.70;;;;;;8363134;28;20297;-44
2023/03/03 01:02:50;;;;;;;;;;;18.90;29.70;;;;;;8363103;28;20275;-44
2023/03/03 01:06:51;;;;;;;;;;;18.90;29.70;;;;;;8362867;28;19924;-44
2023/03/03 01:10:53;;;;;;;;;;;18.90;29.70;;;;;;8362988;28;19916;-44
2023/03/03 01:14:54;;;;;;;;;;;18.90;29.70;;;;;;8363267;28;19913;-45
2023/03/03 01:18:54;;;;;;;;;;;18.90;29.70;;;;;;8365965;28;20411;-44
2023/03/03 01:22:55;;;;;;;;;;;18.90;29.70;;;;;;8369676;28;19948;-44
2023/03/03 01:26:55;;;;;;;;;;;18.80;29.70;;;;;;8369628;28;20004;-43
2023/03/03 01:30:59;;;;;;;;;;;18.80;29.70;;;;;;8369097;28;19971;-44
2023/03/03 01:35:00;;;;;;;;;;;18.80;29.70;;;;;;8369559;28;20007;-44
2023/03/03 01:39:00;;;;;;;;;;;18.80;29.70;;;;;;8369264;28;20294;-43
2023/03/03 01:43:02;;;;;;;;;;;18.80;29.70;;;;;;8368718;28;20277;-44
2023/03/03 01:47:05;;;;;;;;;;;18.80;29.70;;;;;;8369024;28;19920;-44
2023/03/03 01:51:17;;;;;;;;;;;18.80;29.70;;;;;;8368838;28;19999;-43
2023/03/03 01:55:20;;;;;;;;;;;18.70;29.70;;;;;;8368324;28;19913;-43
2023/03/03 01:59:23;;;;;;;;;;;18.70;29.70;;;;;;8369138;28;19921;-44
2023/03/03 02:03:24;;;;;;;;;;;18.80;29.70;;;;;;8368726;28;19925;-44
2023/03/03 02:07:26;;;;;;;;;;;18.70;29.70;;;;;;8367084;28;19917;-44
2023/03/03 02:11:28;;;;;;;;;;;18.70;29.80;;;;;;8368513;28;19917;-44
2023/03/03 02:15:36;;;;;;;;;;;18.70;29.80;;;;;;8368559;28;20340;-44
2023/03/03 02:19:36;;;;;;;;;;;18.70;29.70;;;;;;8368614;28;19912;-44
2023/03/03 02:23:42;;;;;;;;;;;18.70;29.70;;;;;;8368297;28;19927;-43
2023/03/03 02:27:42;;;;;;;;;;;18.60;29.70;;;;;;8368015;28;19917;-44
2023/03/03 02:31:43;;;;;;;;;;;18.70;29.70;;;;;;8366346;28;19948;-43
2023/03/03 02:35:43;;;;;;;;;;;18.60;29.70;;;;;;8367796;28;20282;-45
2023/03/03 02:39:45;;;;;;;;;;;18.60;29.70;;;;;;8367884;28;19913;-44
2023/03/03 02:43:49;;;;;;;;;;;18.60;29.80;;;;;;8367465;28;19925;-44
2023/03/03 02:47:50;;;;;;;;;;;18.60;29.80;;;;;;8367357;28;19944;-44
2023/03/03 02:51:50;;;;;;;;;;;18.60;29.80;;;;;;8366894;28;19924;-43
2023/03/03 02:55:51;;;;;;;;;;;18.60;29.80;;;;;;8367174;28;20362;-44
2023/03/03 02:59:51;;;;;;;;;;;18.60;29.80;;;;;;8367550;28;19959;-44
2023/03/03 03:03:52;;;;;;;;;;;18.60;29.80;;;;;;8366302;28;19921;-44
2023/03/03 03:07:52;;;;;;;;;;;18.60;29.80;;;;;;8367024;28;20011;-44
2023/03/03 03:11:53;;;;;;;;;;;18.60;29.80;;;;;;8366913;28;19916;-45
2023/03/03 03:15:53;;;;;;;;;;;18.50;29.80;;;;;;8366071;28;19920;-45
2023/03/03 03:19:53;;;;;;;;;;;18.50;29.80;;;;;;8366778;28;19986;-44
2023/03/03 03:23:54;;;;;;;;;;;18.50;29.80;;;;;;8366503;28;19967;-44
2023/03/03 03:27:55;;;;;;;;;;;18.50;29.80;;;;;;8365803;28;19960;-43
2023/03/03 03:31:55;;;;;;;;;;;18.50;29.80;;;;;;8366021;28;19996;-43
2023/03/03 03:35:56;;;;;;;;;;;18.40;29.80;;;;;;8365845;28;19912;-44
2023/03/03 03:39:56;;;;;;;;;;;18.40;29.80;;;;;;8365347;28;19919;-43
2023/03/03 03:43:57;;;;;;;;;;;18.40;29.90;;;;;;8365690;28;20009;-45
2023/03/03 03:47:57;;;;;;;;;;;18.40;29.90;;;;;;8365649;28;19924;-44
2023/03/03 03:51:58;;;;;;;;;;;18.40;29.90;;;;;;8364943;28;19924;-44
2023/03/03 03:55:58;;;;;;;;;;;18.40;29.90;;;;;;8365725;28;20066;-44
2023/03/03 03:59:59;;;;;;;;;;;18.40;29.90;;;;;;8365627;28;19925;-43
2023/03/03 04:03:59;;;;;;;;;;;18.30;29.90;;;;;;8364531;28;19931;-44
2023/03/03 04:07:59;;;;;;;;;;;18.30;29.90;;;;;;8364814;28;19916;-44
2023/03/03 04:12:00;;;;;;;;;;;18.40;29.90;;;;;;8364790;28;19917;-44
2023/03/03 04:16:01;;;;;;;;;;;18.30;29.90;;;;;;8364540;28;20328;-44
2023/03/03 04:20:02;;;;;;;;;;;18.30;29.90;;;;;;8364647;28;19917;-44
2023/03/03 04:24:02;;;;;;;;;;;18.40;30.00;;;;;;8364581;28;19921;-44
2023/03/03 04:28:03;;;;;;;;;;;18.40;29.90;;;;;;8363891;28;20405;-44
2023/03/03 04:32:03;;;;;;;;;;;18.40;29.90;;;;;;8364496;28;20387;-44
2023/03/03 04:36:04;;;;;;;;;;;18.40;29.90;;;;;;8364258;28;19913;-45
2023/03/03 04:40:05;;;;;;;;;;;18.40;29.90;;;;;;8363289;28;19924;-44
2023/03/03 04:44:05;;;;;;;;;;;18.40;29.90;;;;;;8363756;28;19920;-44
2023/03/03 04:48:06;;;;;;;;;;;18.40;29.90;;;;;;8363738;28;20051;-43
2023/03/03 04:52:07;;;;;;;;;;;18.40;29.90;;;;;;8363023;28;19920;-44
2023/03/03 04:56:07;;;;;;;;;;;18.30;29.90;;;;;;8363807;28;19917;-44
2023/03/03 05:00:08;;;;;;;;;;;18.40;29.90;;;;;;8363515;28;19956;-44
2023/03/03 05:04:09;;;;;;;;;;;18.30;29.90;;;;;;8363013;28;19921;-44
2023/03/03 05:08:09;;;;;;;;;;;18.30;29.90;;;;;;8350988;28;19921;-44
2023/03/03 05:12:10;;;;;;;;;;;18.40;30.00;;;;;;8335458;28;19920;-45
2023/03/03 05:16:10;;;;;;;;;;;18.40;30.00;;;;;;8363042;28;20335;-44
2023/03/03 05:20:11;;;;;;;;;;;18.60;30.00;;;;;;8363289;28;19924;-44
2023/03/03 05:24:12;;;;;;;;;;;18.70;29.90;;;;;;8363310;28;19924;-46
2023/03/03 05:28:13;;;;;;;;;;;18.80;29.80;;;;;;8362597;28;20370;-45
2023/03/03 05:32:14;;;;;;;;;;;18.90;29.80;;;;;;8363107;28;19918;-46
2023/03/03 05:36:14;;;;;;;;;;;19.00;29.70;;;;;;8363294;28;19958;-45
2023/03/03 05:40:15;;;;;;;;;;;19.10;29.70;;;;;;8362313;28;19962;-44
2023/03/03 05:44:16;;;;;;;;;;;19.10;29.70;;;;;;8363152;28;19924;-45
2023/03/03 05:48:16;;;;;;;;;;;19.20;29.70;;;;;;8362821;28;20360;-45
2023/03/03 05:52:17;;;;;;;;;;;19.30;29.70;;;;;;8362272;28;19924;-45
2023/03/03 05:56:17;;;;;;;;;;;19.30;29.60;;;;;;8362910;28;19948;-45
2023/03/03 06:00:18;;;;;;;;;;;19.40;29.60;;;;;;8362810;28;19921;-46
2023/03/03 06:04:18;;;;;;;;;;;19.40;29.60;;;;;;8364261;28;19916;-45
2023/03/03 06:08:19;;;;;;;;;;;19.50;29.60;;;;;;8368923;28;20274;-46
2023/03/03 06:12:19;;;;;;;;;;;19.50;29.60;;;;;;8368821;28;19921;-45
2023/03/03 06:16:20;;;;;;;;;;;19.60;29.60;;;;;;8368223;28;19913;-46
2023/03/03 06:20:20;;;;;;;;;;;19.60;29.60;;;;;;8368476;28;19921;-45
2023/03/03 06:24:24;;;;;;;;;;;19.60;29.60;;;;;;8368169;28;19917;-45
2023/03/03 06:28:24;;;;;;;;;;;19.70;29.60;;;;;;8367510;28;19921;-45
2023/03/03 06:32:25;;;;;;;;;;;19.70;29.60;;;;;;8368157;28;20011;-45
2023/03/03 06:36:25;;;;;;;;;;;19.70;29.60;;;;;;8367983;28;20286;-45
2023/03/03 06:40:25;;;;;;;;;;;19.70;29.60;;;;;;8367552;28;19920;-45
2023/03/03 06:44:26;;;;;;;;;;;19.70;29.60;;;;;;8367720;28;19917;-45
2023/03/03 06:48:26;;;;;;;;;;;19.70;29.60;;;;;;8367513;28;19917;-44
2023/03/03 06:52:27;;;;;;;;;;;19.70;29.60;;;;;;8366886;28;19952;-44
2023/03/03 06:56:28;;;;;;;;;;;19.70;29.60;;;;;;8367668;28;19920;-44
2023/03/03 07:00:29;;;;;;;;;;;19.70;29.60;;;;;;8366885;28;19921;-44
2023/03/03 07:04:32;;;;;;;;;;;19.70;29.60;;;;;;8366255;28;19929;-44
2023/03/03 07:08:32;;;;;;;;;;;19.70;29.70;;;;;;8366953;28;20015;-47
2023/03/03 07:12:36;;;;;;;;;;;19.70;29.60;;;;;;8366632;28;19963;-44
2023/03/03 07:16:37;;;;;;;;;;;19.70;29.70;;;;;;8365517;28;19917;-45
2023/03/03 07:20:38;;;;;;;;;;;19.70;29.60;;;;;;8366366;28;19968;-45
2023/03/03 07:24:39;;;;;;;;;;;19.80;29.60;;;;;;8366231;28;19913;-45
2023/03/03 07:28:41;;;;;;;;;;;19.80;29.70;;;;;;8365634;28;20001;-49
2023/03/03 07:32:44;;;;;;;;;;;19.80;29.60;;;;;;8365924;28;19917;-44
2023/03/03 07:36:44;;;;;;;;;;;19.90;29.60;;;;;;8366235;28;19916;-45
2023/03/03 07:40:52;;;;;;;;;;;19.90;29.50;;;;;;8365770;28;19947;-45
2023/03/03 07:44:55;;;;;;;;;;;20.00;29.50;;;;;;8365763;28;20392;-44
2023/03/03 07:48:56;;;;;;;;;;;20.00;29.50;;;;;;8364904;28;19913;-44
2023/03/03 07:52:58;;;;;;;;;;;20.10;29.50;;;;;;8365240;28;19920;-44
2023/03/03 07:57:04;;;;;;;;;;;20.10;29.50;;;;;;8365675;28;19917;-45
2023/03/03 08:01:23;;;;;;;;;;;20.10;29.50;;;;;;8365129;28;20306;-45
2023/03/03 08:05:29;;;;;;;;;;;20.10;29.50;;;;;;8350900;28;20386;-46
2023/03/03 08:09:30;;;;;;;;;;;20.20;29.50;;;;;;8346507;28;19921;-46
2023/03/03 08:13:38;;;;;;;;;;;20.10;29.50;;;;;;8363972;28;19921;-44
2023/03/03 08:17:39;;;;;;;;;;;20.10;29.40;;;;;;8364887;28;20373;-45
2023/03/03 08:21:40;;;;;;;;;;;20.10;29.40;;;;;;8364270;28;19971;-45
2023/03/03 08:25:41;;;;;;;;;;;20.10;29.50;;;;;;8363641;28;19916;-45
2023/03/03 08:29:41;;;;;;;;;;;20.10;29.40;;;;;;8363393;28;20281;-45
2023/03/03 08:33:42;;;;;;;;;;;20.00;29.80;;;;;;8363994;28;19917;-45
2023/03/03 08:37:42;;;;;;;;;;;20.00;29.40;;;;;;8363510;28;19917;-45
2023/03/03 08:41:44;;;;;;;;;;;20.00;29.50;;;;;;8363912;28;20399;-45
2023/03/03 08:45:46;;;;;;;;;;;19.90;29.50;;;;;;8363232;28;20000;-42
2023/03/03 08:49:46;;;;;;;;;;;19.90;29.50;;;;;;8363419;28;19916;-44
2023/03/03 08:53:47;;;;;;;;;;;19.90;29.50;;;;;;8363448;28;20286;-45
2023/03/03 08:57:47;;;;;;;;;;;19.90;29.50;;;;;;8363294;28;20400;-44
2023/03/03 09:01:47;;;;;;;;;;;19.80;29.50;;;;;;8363651;28;19925;-45
2023/03/03 09:05:48;;;;;;;;;;;19.80;29.50;;;;;;8362949;28;19917;-45
2023/03/03 09:09:48;;;;;;;;;;;19.80;29.50;;;;;;8362549;28;19935;-44
2023/03/03 09:13:52;;;;;;;;;;;19.80;29.50;;;;;;8363186;28;19940;-46
2023/03/03 09:17:52;;;;;;;;;;;19.80;29.60;;;;;;8363269;28;19923;-44
2023/03/03 09:21:54;;;;;;;;;;;19.70;29.50;;;;;;8362232;28;20410;-47
2023/03/03 09:25:54;;;;;;;;;;;19.70;29.90;;;;;;8363096;28;19917;-44
2023/03/03 09:30:11;;;;;;;;;;;19.80;29.60;;;;;;8362699;28;19913;-45
2023/03/03 09:34:15;;;;;;;;;;;19.70;29.60;;;;;;8363726;28;19940;-45
2023/03/03 09:38:27;;;;;;;;;;;19.70;29.60;;;;;;8363628;28;19966;-44
2023/03/03 09:42:33;;;;;;;;;;;19.70;29.60;;;;;;8369372;28;19925;-45
2023/03/03 09:46:33;;;;;;;;;;;19.70;29.60;;;;;;8368578;28;19960;-45
2023/03/03 09:50:44;;;;;;;;;;;19.70;29.60;;;;;;8369014;28;19940;-45
2023/03/03 09:54:54;;;;;;;;;;;19.70;29.60;;;;;;8368868;28;20286;-44
2023/03/03 09:59:13;;;;;;;;;;;19.60;29.60;;;;;;8368456;28;20282;-43
2023/03/03 10:03:22;;;;;;;;;;;19.60;29.60;;;;;;8368654;28;19928;-46
2023/03/03 10:07:23;;;;;;;;;;;19.60;29.60;;;;;;8367708;28;20004;-44
2023/03/03 10:11:28;;;;;;;;;;;19.60;29.60;;;;;;8368260;28;19924;-43
2023/03/03 10:15:31;;;;;;;;;;;19.60;29.60;;;;;;8368330;28;20378;-44
2023/03/03 10:19:38;;;;;;;;;;;19.60;29.60;;;;;;8367526;28;19917;-44
2023/03/03 10:23:42;;;;;;;;;;;19.50;29.60;;;;;;8368120;28;19963;-45
2023/03/03 10:27:42;;;;;;;;;;;19.60;29.70;;;;;;8368196;28;19913;-46
2023/03/03 10:31:53;;;;;;;;;;;19.60;29.70;;;;;;8367442;28;19917;-44
2023/03/03 10:36:03;;;;;;;;;;;19.50;29.60;;;;;;8367620;28;19924;-45
2023/03/03 10:40:31;;;;;;;;;;;19.50;29.70;;;;;;8367022;28;19921;-45
2023/03/03 10:44:42;;;;;;;;;;;19.50;29.70;;;;;;8367595;28;20305;-46
2023/03/03 10:48:52;;;;;;;;;;;19.50;29.70;;;;;;8367497;28;19913;-45
2023/03/03 10:53:07;;;;;;;;;;;19.50;29.70;;;;;;8366084;28;19917;-45
2023/03/03 10:57:21;;;;;;;;;;;19.50;29.70;;;;;;8367086;28;20290;-45
2023/03/03 11:01:44;;;;;;;;;;;19.50;29.70;;;;;;8366777;28;20012;-44
2023/03/03 11:05:50;;;;;;;;;;;19.50;29.70;;;;;;8366896;28;20385;-44
2023/03/03 11:09:51;;;;;;;;;;;19.50;29.70;;;;;;8340708;28;19916;-44
2023/03/03 11:14:04;;;;;;;;;;;19.50;30.10;;;;;;8366822;28;20012;-45
2023/03/03 11:18:14;;;;;;;;;;;19.50;29.70;;;;;;8366514;28;19978;-45
2023/03/03 11:22:24;;;;;;;;;;;19.50;29.70;;;;;;8365699;28;19925;-45
2023/03/03 11:26:25;;;;;;;;;;;19.50;29.70;;;;;;8366194;28;19917;-45
2023/03/03 11:30:33;;;;;;;;;;;19.50;29.70;;;;;;8366004;28;20354;-44
2023/03/03 11:34:52;;;;;;;;;;;19.50;29.70;;;;;;8365596;28;19928;-46
2023/03/03 11:39:08;;;;;;;;;;;19.50;29.70;;;;;;8366009;28;19913;-45
2023/03/03 11:43:16;;;;;;;;;;;19.50;29.80;;;;;;8365099;28;19929;-45
2023/03/03 11:47:25;;;;;;;;;;;19.50;29.70;;;;;;8365595;28;20374;-44
2023/03/03 11:51:33;;;;;;;;;;;19.50;29.70;;;;;;8365322;28;19916;-44
2023/03/03 11:55:37;;;;;;;;;;;19.50;29.80;;;;;;8364627;28;19917;-46
2023/03/03 11:59:43;;;;;;;;;;;19.50;29.80;;;;;;8365468;28;19921;-44
2023/03/03 12:03:55;;;;;;;;;;;19.50;29.80;;;;;;8367884;28;20293;-45
2023/03/03 12:08:03;;;;;;;;;;;19.50;29.80;;;;;;8364856;28;19966;-45
2023/03/03 12:12:06;;;;;;;;;;;19.50;29.80;;;;;;8364736;28;19975;-45
2023/03/03 12:16:11;;;;;;;;;;;19.50;29.80;;;;;;8364145;28;19924;-45
2023/03/03 12:20:15;;;;;;;;;;;19.50;29.80;;;;;;8364575;28;19916;-46
2023/03/03 12:24:26;;;;;;;;;;;19.50;29.80;;;;;;8364802;28;20385;-44
2023/03/03 12:28:29;;;;;;;;;;;19.50;29.80;;;;;;8363934;28;19917;-44
2023/03/03 12:32:47;;;;;;;;;;;19.50;29.80;;;;;;8364370;28;19924;-45
2023/03/03 12:37:06;;;;;;;;;;;19.50;29.80;;;;;;8363550;28;19962;-44
2023/03/03 12:41:13;;;;;;;;;;;19.50;29.80;;;;;;8363921;28;20055;-45
2023/03/03 12:45:26;;;;;;;;;;;19.50;29.70;;;;;;8363707;28;19997;-45
2023/03/03 12:49:49;;;;;;;;;;;19.50;29.80;;;;;;8363324;28;19944;-45
2023/03/03 12:54:09;;;;;;;;;;;19.50;29.80;;;;;;8363036;28;20305;-48
2023/03/03 12:58:32;;;;;;;;;;;19.50;29.80;;;;;;8362876;28;19978;-45
2023/03/03 13:02:42;;;;;;;;;;;19.50;29.80;;;;;;8363357;28;20031;-45
2023/03/03 13:06:49;;;;;;;;;;;19.50;29.80;;;;;;8363056;28;19917;-44
2023/03/03 13:10:57;;;;;;;;;;;19.50;29.80;;;;;;8363190;28;19920;-44
2023/03/03 13:15:15;;;;;;;;;;;19.50;29.80;;;;;;8362618;28;19913;-45
2023/03/03 13:19:19;;;;;;;;;;;19.50;29.80;;;;;;8360741;28;19917;-45
2023/03/03 13:23:26;;;;;;;;;;;19.50;29.80;;;;;;8362821;28;19928;-44
2023/03/03 13:27:31;;;;;;;;;;;19.50;29.80;;;;;;8335845;28;19992;-44
2023/03/03 13:31:37;;;;;;;;;;;19.50;29.90;;;;;;8333950;28;20424;-44
2023/03/03 13:35:55;;;;;;;;;;;19.50;29.80;;;;;;8348003;28;20013;-46
2023/03/03 13:40:02;;;;;;;;;;;19.50;29.90;;;;;;8340800;28;20635;-43
2023/03/03 13:44:08;;;;;;;;;;;19.50;29.90;;;;;;8361401;28;19932;-45
2023/03/03 13:48:08;;;;;;;;;;;19.50;29.90;;;;;;8353769;28;19932;-44
2023/03/03 13:52:11;;;;;;;;;;;19.50;29.80;;;;;;8360937;28;20000;-44
2023/03/03 13:56:11;;;;;;;;;;;19.50;29.90;;;;;;8361250;28;19917;-44
2023/03/03 14:00:12;;;;;;;;;;;19.50;29.90;;;;;;8362829;28;19928;-45
2023/03/03 14:04:31;;;;;;;;;;;19.50;29.90;;;;;;8339356;28;19932;-43
2023/03/03 14:08:31;;;;;;;;;;;19.50;29.90;;;;;;8356472;28;20418;-45
2023/03/03 14:12:37;;;;;;;;;;;19.50;29.90;;;;;;8362215;28;19917;-44
2023/03/03 14:16:47;;;;;;;;;;;19.50;29.90;;;;;;8355937;28;19916;-44
2023/03/03 14:20:50;;;;;;;;;;;19.50;30.00;;;;;;8359505;28;19923;-44
2023/03/03 14:25:13;;;;;;;;;;;19.50;29.90;;;;;;8331018;28;19921;-44
2023/03/03 14:29:21;;;;;;;;;;;19.50;29.90;;;;;;8367452;28;19997;-45
2023/03/03 14:33:26;;;;;;;;;;;19.50;29.80;;;;;;8367088;28;19923;-45
2023/03/03 14:37:28;;;;;;;;;;;19.50;29.90;;;;;;8367307;28;19924;-44
2023/03/03 14:41:46;;;;;;;;;;;19.50;29.90;;;;;;8353813;28;19952;-44
2023/03/03 14:45:47;;;;;;;;;;;19.50;29.90;;;;;;8365968;28;19958;-44
2023/03/03 14:49:48;;;;;;;;;;;19.50;29.90;;;;;;8335989;28;20032;-45
2023/03/03 14:53:49;;;;;;;;;;;19.50;29.90;;;;;;8361342;28;20358;-44
2023/03/03 14:57:50;;;;;;;;;;;19.40;29.90;;;;;;8338348;28;19923;-43
2023/03/03 15:01:56;;;;;;;;;;;19.40;29.90;;;;;;8346058;28;19929;-44
2023/03/03 15:05:57;;;;;;;;;;;19.40;30.00;;;;;;8364926;28;19974;-42
2023/03/03 15:09:57;;;;;;;;;;;19.40;30.00;;;;;;8333929;28;19917;-44
2023/03/03 15:14:15;;;;;;;;;;;19.40;30.00;;;;;;8351718;28;19925;-45
2023/03/03 15:18:15;;;;;;;;;;;19.40;30.00;;;;;;8355431;28;19924;-43
2023/03/03 15:22:45;;;;;;;;;;;19.40;30.00;;;;;;8365625;28;20270;-43
2023/03/03 15:26:49;;;;;;;;;;;19.40;30.00;;;;;;8329340;28;19970;-45
2023/03/03 15:30:52;;;;;;;;;;;19.40;30.00;;;;;;8365360;28;19967;-44
2023/03/03 15:34:58;;;;;;;;;;;19.40;30.00;;;;;;8365969;28;19920;-45
2023/03/03 15:39:07;;;;;;;;;;;19.40;30.00;;;;;;8363867;28;19924;-45
2023/03/03 15:43:21;;;;;;;;;;;19.40;30.00;;;;;;8359407;28;20012;-45
2023/03/03 15:47:33;;;;;;;;;;;19.40;30.00;;;;;;8363250;28;20370;-43
2023/03/03 15:51:36;;;;;;;;;;;19.40;30.00;;;;;;8365154;28;19920;-43
2023/03/03 15:55:43;;;;;;;;;;;19.40;30.00;;;;;;8363658;28;19917;-46
2023/03/03 15:59:45;;;;;;;;;;;19.40;30.00;;;;;;8365231;28;19921;-46
2023/03/03 16:03:48;;;;;;;;;;;19.40;30.00;;;;;;8363177;28;19932;-42
2023/03/03 16:08:01;;;;;;;;;;;19.30;30.00;;;;;;8363112;28;19917;-45
2023/03/03 16:12:12;;;;;;;;;;;19.30;30.00;;;;;;8364309;28;19923;-45
2023/03/03 16:16:24;;;;;;;;;;;19.40;30.10;;;;;;8363439;28;19913;-44
2023/03/03 16:20:30;;;;;;;;;;;19.50;30.00;;;;;;8364579;28;20362;-45
2023/03/03 16:24:46;;;;;;;;;;;19.60;30.00;;;;;;8364106;28;19947;-45
2023/03/03 16:28:58;;;;;;;;;;;19.70;30.00;;;;;;8363970;28;19917;-45
2023/03/03 16:32:58;;;;;;;;;;;19.80;30.00;;;;;;8363811;28;19916;-46
2023/03/03 16:37:21;;;;;;;;;;;19.90;29.90;;;;;;8363430;28;20290;-45
2023/03/03 16:41:26;;;;;;;;;;;20.00;29.90;;;;;;8363853;28;20255;-45
2023/03/03 16:45:32;;;;;;;;;;;20.00;29.90;;;;;;8364092;28;19912;-46
2023/03/03 16:49:36;;;;;;;;;;;20.10;29.90;;;;;;8362371;28;20373;-46
2023/03/03 16:53:40;;;;;;;;;;;20.20;29.90;;;;;;8363532;28;20400;-44
2023/03/03 16:57:58;;;;;;;;;;;20.20;29.90;;;;;;8363277;28;19921;-45
2023/03/03 17:01:58;;;;;;;;;;;20.30;29.80;;;;;;8361565;28;19924;-46
2023/03/03 17:06:19;;;;;;;;;;;20.30;29.80;;;;;;8363532;28;20352;-47
2023/03/03 17:10:43;;;;;;;;;;;20.30;29.80;;;;;;8321885;28;19959;-45
2023/03/03 17:15:06;;;;;;;;;;;20.40;29.90;;;;;;8351889;28;19917;-46
2023/03/03 17:19:13;;;;;;;;;;;20.40;29.80;;;;;;8325083;28;19916;-46
2023/03/03 17:23:32;;;;;;;;;;;20.40;29.80;;;;;;8362841;28;20390;-45
2023/03/03 17:28:08;;;;;;;;;;;20.50;29.90;;;;;;8362712;28;19920;-46
2023/03/03 17:32:27;;;;;;;;;;;20.40;29.80;;;;;;8287519;28;19921;-45
2023/03/03 17:36:27;;;;;;;;;;;20.40;29.80;;;;;;8362693;28;19913;-45
2023/03/03 17:40:28;;;;;;;;;;;20.50;29.90;;;;;;8362161;28;20366;-45
2023/03/03 17:44:47;;;;;;;;;;;20.50;29.80;;;;;;8362862;28;19959;-45
2023/03/03 17:48:57;;;;;;;;;;;20.50;29.80;;;;;;8343816;28;19923;-44
2023/03/03 17:53:16;;;;;;;;;;;20.50;29.80;;;;;;8362160;28;19917;-45
2023/03/03 17:57:20;;;;;;;;;;;20.50;29.90;;;;;;8362242;28;19972;-45
2023/03/03 18:01:39;;;;;;;;;;;20.40;29.90;;;;;;8366678;28;20374;-45
2023/03/03 18:05:39;;;;;;;;;;;20.50;29.90;;;;;;8368709;28;20437;-46
2023/03/03 18:09:40;;;;;;;;;;;20.50;29.90;;;;;;8368425;28;19982;-44
2023/03/03 18:13:40;;;;;;;;;;;20.50;29.90;;;;;;8367862;28;20332;-44
2023/03/03 18:17:57;;;;;;;;;;;20.50;29.90;;;;;;8368493;28;20015;-49
2023/03/03 18:22:05;;;;;;;;;;;20.40;29.90;;;;;;8367640;28;19971;-44
2023/03/03 18:26:24;;;;;;;;;;;20.50;29.90;;;;;;8368295;28;20295;-46
2023/03/03 18:30:43;;;;;;;;;;;20.40;29.90;;;;;;8367858;28;20337;-45
2023/03/03 18:34:44;;;;;;;;;;;20.40;29.90;;;;;;8367278;28;20336;-44
2023/03/03 18:38:46;;;;;;;;;;;20.50;29.90;;;;;;8367519;28;19913;-45
2023/03/03 18:42:52;;;;;;;;;;;20.50;29.90;;;;;;8349173;28;20011;-46
2023/03/03 18:46:53;;;;;;;;;;;20.50;29.80;;;;;;8351074;28;19913;-43
2023/03/03 18:50:54;;;;;;;;;;;20.50;29.80;;;;;;8367218;28;19940;-46
2023/03/03 18:55:00;;;;;;;;;;;20.50;29.80;;;;;;8366740;28;19991;-46
2023/03/03 18:59:01;;;;;;;;;;;20.60;29.80;;;;;;8367088;28;19924;-45
2023/03/03 19:03:17;;;;;;;;;;;20.60;29.80;;;;;;8367034;28;19994;-44
2023/03/03 19:07:25;;;;;;;;;;;20.60;29.80;;;;;;8366518;28;19920;-45
2023/03/03 19:11:38;;;;;;;;;;;20.70;29.80;;;;;;8366271;28;19921;-45
2023/03/03 19:15:42;;;;;;;;;;;20.70;29.70;;;;;;8366630;28;19993;-45
2023/03/03 19:20:08;;;;;;;;;;;20.70;29.80;;;;;;8365967;28;20396;-45
2023/03/03 19:24:21;;;;;;;;;;;20.70;29.70;;;;;;8366464;28;20289;-45
2023/03/03 19:28:31;;;;;;;;;;;20.70;29.70;;;;;;8365663;28;19921;-45
2023/03/03 19:32:59;;;;;;;;;;;20.70;29.70;;;;;;8366127;28;19924;-44
2023/03/03 19:37:01;;;;;;;;;;;20.70;29.70;;;;;;8365675;28;19917;-44
2023/03/03 19:41:20;;;;;;;;;;;20.60;29.70;;;;;;8365641;28;19932;-46
2023/03/03 19:45:21;;;;;;;;;;;20.60;29.70;;;;;;8365532;28;19928;-45
2023/03/03 19:49:30;;;;;;;;;;;20.60;29.70;;;;;;8365115;28;19951;-46
2023/03/03 19:53:34;;;;;;;;;;;20.60;29.70;;;;;;8365803;28;19917;-43
2023/03/03 19:57:44;;;;;;;;;;;20.60;29.70;;;;;;8347194;28;19920;-45
2023/03/03 20:01:51;;;;;;;;;;;20.60;29.70;;;;;;8345932;28;19925;-45
2023/03/03 20:05:58;;;;;;;;;;;20.50;29.70;;;;;;8365081;28;19949;-44
2023/03/03 20:10:01;;;;;;;;;;;20.50;29.70;;;;;;8364229;28;19913;-45
2023/03/03 20:14:11;;;;;;;;;;;20.50;29.70;;;;;;8364607;28;19920;-45
2023/03/03 20:18:30;;;;;;;;;;;20.50;29.70;;;;;;8364598;28;19913;-45
2023/03/03 20:22:43;;;;;;;;;;;20.60;29.70;;;;;;8346075;28;19928;-44
2023/03/03 20:27:03;;;;;;;;;;;20.60;29.70;;;;;;8346609;28;20006;-45
2023/03/03 20:31:23;;;;;;;;;;;20.70;29.70;;;;;;8363632;28;20289;-43
2023/03/03 20:35:30;;;;;;;;;;;20.70;29.60;;;;;;8363876;28;19980;-44
2023/03/03 20:39:40;;;;;;;;;;;20.70;29.60;;;;;;8363944;28;19928;-45
2023/03/03 20:43:55;;;;;;;;;;;20.80;29.60;;;;;;8363100;28;19936;-45
2023/03/03 20:48:07;;;;;;;;;;;20.80;29.60;;;;;;8364133;28;19917;-44
2023/03/03 20:52:25;;;;;;;;;;;20.80;29.60;;;;;;8363453;28;20468;-44
2023/03/03 20:56:28;;;;;;;;;;;20.80;29.60;;;;;;8364098;28;19993;-45
2023/03/03 21:00:32;;;;;;;;;;;20.80;29.50;;;;;;8363065;28;19921;-44
2023/03/03 21:04:35;;;;;;;;;;;20.80;29.60;;;;;;8362636;28;19928;-45
2023/03/03 21:08:41;;;;;;;;;;;20.80;29.50;;;;;;8362423;28;21295;-43
2023/03/03 21:12:42;;;;;;;;;;;20.80;29.50;;;;;;8363348;28;20328;-45
2023/03/03 21:16:42;;;;;;;;;;;20.80;29.50;;;;;;8362670;28;19953;-46
2023/03/03 21:20:43;;;;;;;;;;;20.80;29.60;;;;;;8363114;28;19924;-45
2023/03/03 21:24:47;;;;;;;;;;;20.70;29.60;;;;;;8362929;28;19929;-45
2023/03/03 21:28:59;;;;;;;;;;;20.70;29.50;;;;;;8362896;28;19917;-43
2023/03/03 21:33:01;;;;;;;;;;;20.70;29.50;;;;;;8362909;28;19928;-45
2023/03/03 21:37:09;;;;;;;;;;;20.70;29.50;;;;;;8367691;28;19928;-44
2023/03/03 21:41:09;;;;;;;;;;;20.60;29.50;;;;;;8369230;28;19921;-45
2023/03/03 21:45:10;;;;;;;;;;;20.60;29.50;;;;;;8369454;28;19917;-45
2023/03/03 21:49:11;;;;;;;;;;;20.60;29.50;;;;;;8368836;28;19932;-44
2023/03/03 21:53:11;;;;;;;;;;;20.60;29.50;;;;;;8369241;28;20307;-45
2023/03/03 21:57:12;;;;;;;;;;;20.60;29.50;;;;;;8369219;28;19923;-45
2023/03/03 22:01:13;;;;;;;;;;;20.60;29.50;;;;;;8369022;28;20015;-45
2023/03/03 22:05:13;;;;;;;;;;;20.50;29.50;;;;;;8368594;28;19924;-44
2023/03/03 22:09:14;;;;;;;;;;;20.50;29.50;;;;;;8368698;28;19913;-45
2023/03/03 22:13:15;;;;;;;;;;;20.50;29.50;;;;;;8368291;28;19924;-45
2023/03/03 22:17:15;;;;;;;;;;;20.50;29.50;;;;;;8368476;28;20350;-44
2023/03/03 22:21:16;;;;;;;;;;;20.40;29.50;;;;;;8368275;28;19932;-43
2023/03/03 22:25:16;;;;;;;;;;;20.40;29.50;;;;;;8367996;28;19924;-45
2023/03/03 22:29:21;;;;;;;;;;;20.40;29.50;;;;;;8368207;28;19913;-45
2023/03/03 22:33:21;;;;;;;;;;;20.40;29.50;;;;;;8368144;28;20455;-45
2023/03/03 22:37:22;;;;;;;;;;;20.30;29.50;;;;;;8349652;28;19917;-44
2023/03/03 22:41:23;;;;;;;;;;;20.30;29.50;;;;;;8367756;28;19936;-45
2023/03/03 22:45:23;;;;;;;;;;;20.30;29.60;;;;;;8367048;28;19913;-44
2023/03/03 22:49:23;;;;;;;;;;;20.20;29.60;;;;;;8348480;28;19917;-45
2023/03/03 22:53:24;;;;;;;;;;;20.20;29.60;;;;;;8367684;28;19967;-44
2023/03/03 22:57:25;;;;;;;;;;;20.20;29.60;;;;;;8316608;28;19924;-45
2023/03/03 23:01:25;;;;;;;;;;;20.20;29.70;;;;;;8337852;28;19925;-45
2023/03/03 23:05:26;;;;;;;;;;;20.10;29.70;;;;;;8366548;28;19916;-44
2023/03/03 23:09:26;;;;;;;;;;;20.10;29.70;;;;;;8366940;28;19913;-44
2023/03/03 23:13:27;;;;;;;;;;;20.10;29.80;;;;;;8366345;28;19916;-44
2023/03/03 23:17:27;;;;;;;;;;;20.00;29.70;;;;;;8366678;28;19916;-44
2023/03/03 23:21:27;;;;;;;;;;;20.00;29.70;;;;;;8366418;28;19921;-45
2023/03/03 23:25:28;;;;;;;;;;;20.00;29.70;;;;;;8365778;28;19917;-45
2023/03/03 23:29:29;;;;;;;;;;;19.90;29.70;;;;;;8366211;28;19935;-43
2023/03/03 23:33:30;;;;;;;;;;;19.90;29.70;;;;;;8366574;28;19924;-44
2023/03/03 23:37:30;;;;;;;;;;;19.90;29.80;;;;;;8365626;28;19966;-45
2023/03/03 23:41:31;;;;;;;;;;;19.90;29.80;;;;;;8365816;28;19960;-44
2023/03/03 23:45:31;;;;;;;;;;;19.90;29.80;;;;;;8365766;28;19917;-46